createdAt,value
2023-01-13T00:01:30.963Z,17.35
2023-01-13T00:04:33.144Z,14.68
2023-01-13T00:07:35.448Z,16.90
2023-01-13T00:10:37.739Z,13.45
2023-01-13T00:13:40.053Z,14.07
2023-01-13T00:16:42.182Z,13.30
2023-01-13T00:19:44.905Z,10.85
2023-01-13T00:22:47.074Z,13.98
2023-01-13T00:25:49.293Z,14.18
2023-01-13T00:28:56.140Z,15.15
2023-01-13T00:31:59.042Z,12.75
2023-01-13T00:35:01.257Z,13.18
2023-01-13T00:38:03.401Z,12.93
2023-01-13T00:41:09.690Z,14.82
2023-01-13T00:44:11.845Z,15.85
2023-01-13T00:47:14.085Z,15.38
2023-01-13T00:50:16.637Z,12.57
2023-01-13T00:53:18.936Z,12.05
2023-01-13T00:56:39.256Z,12.18
2023-01-13T00:59:43.138Z,12.68
2023-01-13T01:02:45.339Z,11.48
2023-01-13T01:05:47.655Z,12.45
2023-01-13T01:08:50.345Z,11.85
2023-01-13T01:11:52.600Z,11.60
2023-01-13T01:14:54.834Z,12.93
2023-01-13T01:17:57.096Z,10.70
2023-01-13T01:21:02.885Z,11.77
2023-01-13T01:24:05.745Z,12.52
2023-01-13T01:27:08.011Z,12.65
2023-01-13T01:30:11.018Z,10.50
2023-01-13T01:33:13.206Z,10.70
2023-01-13T01:36:18.325Z,11.35
2023-01-13T01:39:20.519Z,11.88
2023-01-13T01:42:41.437Z,12.02
2023-01-13T01:45:43.842Z,13.80
2023-01-13T01:48:46.299Z,13.60
2023-01-13T01:51:59.671Z,15.43
2023-01-13T01:55:11.052Z,18.20
2023-01-13T01:58:37.736Z,19.38
2023-01-13T02:01:41.374Z,21.35
2023-01-13T02:04:51.131Z,24.05
2023-01-13T02:10:56.806Z,22.10
2023-01-13T02:13:59.051Z,20.27
2023-01-13T02:17:27.411Z,22.45
2023-01-13T02:24:20.604Z,20.02
2023-01-13T02:27:43.704Z,19.90
2023-01-13T02:31:22.242Z,23.83
2023-01-13T02:34:42.633Z,22.02
2023-01-13T02:41:20.239Z,20.90
2023-01-13T02:44:28.745Z,21.73
2023-01-13T02:47:34.322Z,20.92
2023-01-13T02:50:46.606Z,19.80
2023-01-13T02:53:54.354Z,18.17
2023-01-13T02:56:59.476Z,20.85
2023-01-13T03:00:04.882Z,17.55
2023-01-13T03:03:08.430Z,18.40
2023-01-13T03:06:16.661Z,19.00
2023-01-13T03:09:27.295Z,18.75
2023-01-13T03:12:50.380Z,20.80
2023-01-13T03:16:01.460Z,20.92
2023-01-13T03:19:15.747Z,19.73
2023-01-13T03:22:22.402Z,22.52
2023-01-13T03:25:29.079Z,24.58
2023-01-13T03:28:37.980Z,18.83
2023-01-13T03:31:47.935Z,17.80
2023-01-13T03:34:56.966Z,18.90
2023-01-13T03:38:06.399Z,15.88
2023-01-13T03:41:24.797Z,16.88
2023-01-13T03:44:40.809Z,15.85
2023-01-13T03:47:46.050Z,15.90
2023-01-13T03:50:52.096Z,15.88
2023-01-13T03:54:02.309Z,15.30
2023-01-13T03:57:09.718Z,16.90
2023-01-13T04:00:14.628Z,17.13
2023-01-13T04:04:01.698Z,17.08
2023-01-13T04:07:42.195Z,16.58
2023-01-13T04:11:00.604Z,16.20
2023-01-13T04:14:04.969Z,17.65
2023-01-13T04:17:07.055Z,17.52
2023-01-13T04:20:10.030Z,16.95
2023-01-13T04:23:13.699Z,16.73
2023-01-13T04:26:15.784Z,18.73
2023-01-13T04:29:18.027Z,20.17
2023-01-13T04:32:20.291Z,19.50
2023-01-13T04:35:22.417Z,19.95
2023-01-13T04:38:24.636Z,17.05
2023-01-13T04:41:26.998Z,17.65
2023-01-13T04:44:31.415Z,16.98
2023-01-13T04:47:33.484Z,17.30
2023-01-13T04:50:36.036Z,17.30
2023-01-13T04:53:38.108Z,18.90
2023-01-13T04:56:40.296Z,17.17
2023-01-13T04:59:42.562Z,19.08
2023-01-13T05:02:44.707Z,20.48
2023-01-13T05:05:51.608Z,22.77
2023-01-13T05:08:53.719Z,18.13
2023-01-13T05:12:14.370Z,18.88
2023-01-13T05:15:35.152Z,18.88
2023-01-13T05:18:37.690Z,19.48
2023-01-13T05:21:58.359Z,21.50
2023-01-13T05:25:19.138Z,19.05
2023-01-13T05:28:21.582Z,20.25
2023-01-13T05:31:23.874Z,21.15
2023-01-13T05:34:26.070Z,20.98
2023-01-13T05:37:28.228Z,21.88
2023-01-13T05:40:48.595Z,24.17
2023-01-13T05:46:52.747Z,20.83
2023-01-13T05:49:54.914Z,19.25
2023-01-13T05:52:56.995Z,19.40
2023-01-13T05:55:59.887Z,19.08
2023-01-13T05:59:02.154Z,19.30
2023-01-13T06:02:04.521Z,23.67
2023-01-13T06:05:06.886Z,21.33
2023-01-13T06:08:09.562Z,24.95
2023-01-13T06:11:12.057Z,23.17
2023-01-13T06:14:14.295Z,25.00
2023-01-13T06:17:16.557Z,21.25
2023-01-13T06:20:20.152Z,22.67
2023-01-13T06:23:23.572Z,21.40
2023-01-13T06:26:30.020Z,23.10
2023-01-13T06:29:32.559Z,23.08
2023-01-13T06:32:40.282Z,20.17
2023-01-13T06:35:45.634Z,19.45
2023-01-13T06:38:52.163Z,21.48
2023-01-13T06:42:13.583Z,19.88
2023-01-13T06:45:15.691Z,21.70
2023-01-13T06:48:19.883Z,20.30
2023-01-13T06:51:22.081Z,19.65
2023-01-13T06:54:24.941Z,21.90
2023-01-13T06:57:27.947Z,21.02
2023-01-13T07:00:30.523Z,23.38
2023-01-13T07:03:32.702Z,20.48
2023-01-13T07:06:35.445Z,23.05
2023-01-13T07:09:37.557Z,20.58
2023-01-13T07:12:59.673Z,21.95
2023-01-13T07:16:04.550Z,20.55
2023-01-13T07:19:06.711Z,21.88
2023-01-13T07:22:08.899Z,20.40
2023-01-13T07:25:11.867Z,22.33
2023-01-13T07:28:14.687Z,18.60
2023-01-13T07:31:20.877Z,18.90
2023-01-13T07:34:23.131Z,21.08
2023-01-13T07:37:25.225Z,18.98
2023-01-13T07:40:27.412Z,22.45
2023-01-13T07:43:32.210Z,20.27
2023-01-13T07:46:34.355Z,18.60
2023-01-13T07:49:36.741Z,19.10
2023-01-13T07:52:38.876Z,16.45
2023-01-13T07:55:44.329Z,18.88
2023-01-13T07:58:50.454Z,19.98
2023-01-13T08:01:53.446Z,17.48
2023-01-13T08:04:55.746Z,16.13
2023-01-13T08:07:57.867Z,17.10
2023-01-13T08:11:01.392Z,15.15
2023-01-13T08:14:03.448Z,16.08
2023-01-13T08:17:07.115Z,16.85
2023-01-13T08:20:10.090Z,16.88
2023-01-13T08:23:12.271Z,15.68
2023-01-13T08:26:17.339Z,15.73
2023-01-13T08:29:19.561Z,15.52
2023-01-13T08:32:21.758Z,14.00
2023-01-13T08:35:24.303Z,15.35
2023-01-13T08:38:26.826Z,19.00
2023-01-13T08:41:52.207Z,16.50
2023-01-13T08:44:54.918Z,16.65
2023-01-13T08:47:57.026Z,17.95
2023-01-13T08:51:04.618Z,16.27
2023-01-13T08:54:06.781Z,15.65
2023-01-13T08:57:09.073Z,16.02
2023-01-13T09:00:12.326Z,17.08
2023-01-13T09:03:16.410Z,14.65
2023-01-13T09:06:19.037Z,17.33
2023-01-13T09:09:22.110Z,16.13
2023-01-13T09:12:43.141Z,18.50
2023-01-13T09:15:46.342Z,18.15
2023-01-13T09:18:48.475Z,16.52
2023-01-13T09:21:52.580Z,22.48
2023-01-13T09:24:55.982Z,15.73
2023-01-13T09:27:58.325Z,18.92
2023-01-13T09:31:03.624Z,19.98
2023-01-13T09:34:26.345Z,19.48
2023-01-13T09:37:34.341Z,18.85
2023-01-13T09:40:39.725Z,22.08
2023-01-13T09:43:53.877Z,17.05
2023-01-13T09:47:02.787Z,18.45
2023-01-13T09:50:30.742Z,17.17
2023-01-13T09:53:37.828Z,17.80
2023-01-13T09:56:40.000Z,23.15
2023-01-13T09:59:42.923Z,26.23
2023-01-13T10:02:54.189Z,46.88
2023-01-13T10:06:11.431Z,36.67
2023-01-13T10:09:40.143Z,28.63
2023-01-13T10:13:03.774Z,23.85
2023-01-13T10:16:11.951Z,18.25
2023-01-13T10:19:37.267Z,18.67
2023-01-13T10:22:42.179Z,18.58
2023-01-13T10:26:03.376Z,20.70
2023-01-13T10:29:25.287Z,18.27
2023-01-13T10:32:27.766Z,17.23
2023-01-13T10:35:59.231Z,14.02
2023-01-13T10:39:16.825Z,14.50
2023-01-13T10:42:22.119Z,14.82
2023-01-13T10:45:26.100Z,15.75
2023-01-13T10:48:43.750Z,17.83
2023-01-13T10:51:46.220Z,19.00
2023-01-13T10:54:52.689Z,18.52
2023-01-13T10:57:54.909Z,17.98
2023-01-13T11:01:03.094Z,17.95
2023-01-13T11:04:37.082Z,20.33
2023-01-13T11:07:40.863Z,19.90
2023-01-13T11:10:50.065Z,20.90
2023-01-13T11:14:15.396Z,21.38
2023-01-13T11:17:26.518Z,22.98
2023-01-13T11:20:36.995Z,19.60
2023-01-13T11:23:48.961Z,24.83
2023-01-13T11:26:58.564Z,19.88
2023-01-13T11:33:29.705Z,18.25
2023-01-13T11:36:47.789Z,17.52
2023-01-13T11:40:01.745Z,18.13
2023-01-13T11:43:22.770Z,17.73
2023-01-13T11:46:27.765Z,17.17
2023-01-13T11:49:32.800Z,19.13
2023-01-13T11:53:12.361Z,15.45
2023-01-13T11:56:25.061Z,17.50
2023-01-13T11:59:52.429Z,18.05
2023-01-13T12:03:39.453Z,18.35
2023-01-13T12:06:41.903Z,18.10
2023-01-13T12:10:17.675Z,17.70
2023-01-13T12:13:53.799Z,19.92
2023-01-13T12:16:56.209Z,19.92
2023-01-13T12:20:15.768Z,16.73
2023-01-13T12:23:43.754Z,19.65
2023-01-13T12:26:52.134Z,17.02
2023-01-13T12:29:59.639Z,16.63
2023-01-13T12:33:16.352Z,17.45
2023-01-13T12:36:31.523Z,19.83
2023-01-13T12:39:37.107Z,18.83
2023-01-13T12:43:11.406Z,21.90
2023-01-13T12:46:19.608Z,25.58
2023-01-13T12:49:28.964Z,29.35
2023-01-13T12:52:44.205Z,27.00
2023-01-13T12:55:51.783Z,30.33
2023-01-13T12:59:16.597Z,30.17
2023-01-13T13:02:30.895Z,28.25
2023-01-13T13:05:39.061Z,24.80
2023-01-13T13:08:53.478Z,25.92
2023-01-13T13:11:59.312Z,20.33
2023-01-13T13:15:03.730Z,21.83
2023-01-13T13:18:18.876Z,21.98
2023-01-13T13:21:21.602Z,20.67
2023-01-13T13:24:26.119Z,22.70
2023-01-13T13:27:37.382Z,21.95
2023-01-13T13:30:46.490Z,22.08
2023-01-13T13:34:05.771Z,21.27
2023-01-13T13:37:15.842Z,26.60
2023-01-13T13:40:36.885Z,26.83
2023-01-13T13:44:02.992Z,24.27
2023-01-13T13:47:06.517Z,28.38
2023-01-13T13:50:20.177Z,45.95
2023-01-13T13:53:25.679Z,42.47
2023-01-13T13:56:29.286Z,37.10
2023-01-13T13:59:33.656Z,43.53
2023-01-13T14:02:37.709Z,32.67
2023-01-13T14:05:39.960Z,28.15
2023-01-13T14:08:50.188Z,36.35
2023-01-13T14:12:01.626Z,27.05
2023-01-13T14:15:03.910Z,30.92
2023-01-13T14:18:13.062Z,27.17
2023-01-13T14:21:27.121Z,28.73
2023-01-13T14:24:30.840Z,31.35
2023-01-13T14:27:34.409Z,27.88
2023-01-13T14:30:38.784Z,28.67
2023-01-13T14:33:49.303Z,67.88
2023-01-13T14:36:51.458Z,36.83
2023-01-13T14:39:53.849Z,36.05
2023-01-13T14:43:03.134Z,28.85
2023-01-13T14:46:05.397Z,42.72
2023-01-13T14:49:16.540Z,33.95
2023-01-13T14:52:24.369Z,39.17
2023-01-13T14:55:40.807Z,33.97
2023-01-13T14:58:42.959Z,31.80
2023-01-13T15:01:45.375Z,49.83
2023-01-13T15:04:47.542Z,41.75
2023-01-13T15:07:50.556Z,30.00
2023-01-13T15:11:06.602Z,29.25
2023-01-13T15:14:11.467Z,40.13
2023-01-13T15:17:16.717Z,32.25
2023-01-13T15:20:22.035Z,31.38
2023-01-13T15:23:24.377Z,48.30
2023-01-13T15:26:29.309Z,102.95
2023-01-13T15:29:31.503Z,29.90
2023-01-13T15:32:33.625Z,54.08
2023-01-13T15:35:37.677Z,64.28
2023-01-13T15:38:39.762Z,37.80
2023-01-13T15:42:00.494Z,48.08
2023-01-13T15:45:21.419Z,111.97
2023-01-13T15:48:24.657Z,58.85
2023-01-13T15:51:27.356Z,57.78
2023-01-13T15:54:29.959Z,44.15
2023-01-13T15:57:34.660Z,47.50
2023-01-13T16:00:36.846Z,36.05
2023-01-13T16:03:39.055Z,45.20
2023-01-13T16:06:41.617Z,43.53
2023-01-13T16:09:43.894Z,40.97
2023-01-13T16:12:46.016Z,34.97
2023-01-13T16:15:49.920Z,35.47
2023-01-13T16:18:52.908Z,34.70
2023-01-13T16:21:55.300Z,38.10
2023-01-13T16:24:57.423Z,41.13
2023-01-13T16:27:59.602Z,97.15
2023-01-13T16:31:25.793Z,195.55
2023-01-13T16:34:27.928Z,86.95
2023-01-13T16:37:30.077Z,144.15
2023-01-13T16:40:36.674Z,63.00
2023-01-13T16:43:39.291Z,65.50
2023-01-13T16:46:44.514Z,56.13
2023-01-13T16:49:46.724Z,69.88
2023-01-13T16:52:48.961Z,63.28
2023-01-13T16:55:51.191Z,40.05
2023-01-13T16:58:56.516Z,37.70
2023-01-13T17:01:59.720Z,42.67
2023-01-13T17:05:02.151Z,50.97
2023-01-13T17:08:04.538Z,53.10
2023-01-13T17:11:08.572Z,40.25
2023-01-13T17:14:19.384Z,43.80
2023-01-13T17:17:27.215Z,56.38
2023-01-13T17:20:30.292Z,56.58
2023-01-13T17:23:33.504Z,61.70
2023-01-13T17:26:38.216Z,83.03
2023-01-13T17:29:40.533Z,65.38
2023-01-13T17:32:42.921Z,71.15
2023-01-13T17:35:46.960Z,71.40
2023-01-13T17:38:49.182Z,69.53
2023-01-13T17:41:53.036Z,69.88
2023-01-13T17:44:56.030Z,73.53
2023-01-13T17:47:58.883Z,65.45
2023-01-13T17:51:03.019Z,60.30
2023-01-13T17:54:05.791Z,52.30
2023-01-13T17:57:08.566Z,48.75
2023-01-13T18:00:12.782Z,50.67
2023-01-13T18:03:16.018Z,49.03
2023-01-13T18:06:23.550Z,56.08
2023-01-13T18:09:26.410Z,73.20
2023-01-13T18:12:28.475Z,47.60
2023-01-13T18:15:30.941Z,48.60
2023-01-13T18:18:34.500Z,40.20
2023-01-13T18:21:56.022Z,44.47
2023-01-13T18:25:17.507Z,52.40
2023-01-13T18:28:20.346Z,45.80
2023-01-13T18:31:22.969Z,41.78
2023-01-13T18:34:26.890Z,44.03
2023-01-13T18:37:30.190Z,47.63
2023-01-13T18:40:35.844Z,49.65
2023-01-13T18:43:41.794Z,49.92
2023-01-13T18:46:44.551Z,57.65
2023-01-13T18:49:47.784Z,93.97
2023-01-13T18:52:51.053Z,49.30
2023-01-13T18:55:53.206Z,67.93
2023-01-13T18:58:55.853Z,46.03
2023-01-13T19:01:59.212Z,146.77
2023-01-13T19:05:02.140Z,72.03
2023-01-13T19:08:05.649Z,56.70
2023-01-13T19:11:08.125Z,84.18
2023-01-13T19:14:10.971Z,51.47
2023-01-13T19:17:16.123Z,53.10
2023-01-13T19:20:20.314Z,53.67
2023-01-13T19:23:22.783Z,50.28
2023-01-13T19:26:25.579Z,47.38
2023-01-13T19:29:28.210Z,49.88
2023-01-13T19:32:32.855Z,51.28
2023-01-13T19:35:37.707Z,51.47
2023-01-13T19:38:40.297Z,47.42
2023-01-13T19:42:01.984Z,46.55
2023-01-13T19:45:23.144Z,54.53
2023-01-13T19:48:28.429Z,51.85
2023-01-13T19:51:31.052Z,54.05
2023-01-13T19:54:33.778Z,54.13
2023-01-13T19:57:39.373Z,47.05
2023-01-13T20:00:48.297Z,45.72
2023-01-13T20:03:51.189Z,48.05
2023-01-13T20:06:54.933Z,48.72
2023-01-13T20:09:58.419Z,52.40
2023-01-13T20:13:01.341Z,56.72
2023-01-13T20:16:06.059Z,56.10
2023-01-13T20:19:09.503Z,50.70
2023-01-13T20:22:13.243Z,50.00
2023-01-13T20:25:17.765Z,156.88
2023-01-13T20:28:20.852Z,123.28
2023-01-13T20:31:24.051Z,99.15
2023-01-13T20:34:27.494Z,58.50
2023-01-13T20:37:30.187Z,59.92
2023-01-13T20:40:34.641Z,58.38
2023-01-13T20:43:37.890Z,66.85
2023-01-13T20:46:43.115Z,64.63
2023-01-13T20:49:46.292Z,65.97
2023-01-13T20:52:49.430Z,66.15
2023-01-13T20:55:51.793Z,64.75
2023-01-13T20:58:54.260Z,77.50
2023-01-13T21:01:57.125Z,67.22
2023-01-13T21:05:00.082Z,71.07
2023-01-13T21:08:03.797Z,77.82
2023-01-13T21:11:10.562Z,70.38
2023-01-13T21:14:34.597Z,68.22
2023-01-13T21:17:55.681Z,70.38
2023-01-13T21:21:11.713Z,65.50
2023-01-13T21:24:14.266Z,67.32
2023-01-13T21:27:16.584Z,62.35
2023-01-13T21:30:19.254Z,68.45
2023-01-13T21:33:22.429Z,60.88
2023-01-13T21:36:24.980Z,61.45
2023-01-13T21:39:27.598Z,69.10
2023-01-13T21:42:48.220Z,64.55
2023-01-13T21:49:10.912Z,63.92
2023-01-13T21:52:15.412Z,69.72
2023-01-13T21:55:19.900Z,66.90
2023-01-13T21:58:22.140Z,72.53
2023-01-13T22:01:24.388Z,68.78
2023-01-13T22:04:33.079Z,66.80
2023-01-13T22:07:36.398Z,61.28
2023-01-13T22:11:09.986Z,61.50
2023-01-13T22:14:13.983Z,59.30
2023-01-13T22:17:16.548Z,65.13
2023-01-13T22:20:20.003Z,64.82
2023-01-13T22:23:22.100Z,58.35
2023-01-13T22:26:24.140Z,55.97
2023-01-13T22:29:26.395Z,59.47
2023-01-13T22:32:28.540Z,64.38
2023-01-13T22:35:30.836Z,63.92
2023-01-13T22:38:34.911Z,69.13
2023-01-13T22:41:37.211Z,61.95
2023-01-13T22:44:39.443Z,69.72
2023-01-13T22:47:41.620Z,60.83
2023-01-13T22:50:44.350Z,59.65
2023-01-13T22:53:46.655Z,60.13
2023-01-13T22:56:48.783Z,60.13
2023-01-13T22:59:50.869Z,68.45
2023-01-13T23:02:53.149Z,64.45
2023-01-13T23:05:58.680Z,70.25
2023-01-13T23:09:01.646Z,67.13
2023-01-13T23:12:03.911Z,72.28
2023-01-13T23:15:06.469Z,76.82
2023-01-13T23:18:08.586Z,78.03
2023-01-13T23:21:15.837Z,71.18
2023-01-13T23:24:18.144Z,80.30
2023-01-13T23:27:20.354Z,74.38
2023-01-13T23:30:22.769Z,79.95
2023-01-13T23:33:25.022Z,80.25
2023-01-13T23:36:28.891Z,83.55
2023-01-13T23:39:31.492Z,82.00
2023-01-13T23:42:33.722Z,85.53
2023-01-13T23:45:35.787Z,93.95
2023-01-13T23:48:38.800Z,94.97
2023-01-13T23:51:41.197Z,91.00
2023-01-13T23:54:43.409Z,86.25
2023-01-13T23:57:45.553Z,86.65
